createdAt,value
2023-02-19T00:00:14.947Z,10.68
2023-02-19T00:02:59.238Z,10.68
2023-02-19T00:05:38.316Z,10.68
2023-02-19T00:08:30.585Z,10.76
2023-02-19T00:11:14.661Z,10.76
2023-02-19T00:13:55.506Z,10.68
2023-02-19T00:16:47.536Z,10.64
2023-02-19T00:19:30.359Z,10.68
2023-02-19T00:22:25.059Z,10.69
2023-02-19T00:25:03.709Z,10.55
2023-02-19T00:27:45.296Z,10.50
2023-02-19T00:30:33.943Z,10.48
2023-02-19T00:33:14.071Z,10.45
2023-02-19T00:35:55.074Z,10.58
2023-02-19T00:38:42.119Z,10.43
2023-02-19T00:41:22.444Z,10.49
2023-02-19T00:44:03.378Z,10.51
2023-02-19T00:46:47.535Z,10.37
2023-02-19T00:49:39.434Z,10.33
2023-02-19T00:52:21.303Z,10.26
2023-02-19T00:55:08.328Z,10.28
2023-02-19T00:57:55.190Z,10.35
2023-02-19T01:00:36.971Z,10.34
2023-02-19T01:03:19.688Z,10.18
2023-02-19T01:06:01.156Z,10.10
2023-02-19T01:08:50.703Z,10.08
2023-02-19T01:11:42.225Z,9.99
2023-02-19T01:14:17.260Z,9.87
2023-02-19T01:16:58.160Z,9.87
2023-02-19T01:19:42.524Z,9.83
2023-02-19T01:22:38.657Z,9.73
2023-02-19T01:25:24.742Z,9.76
2023-02-19T01:28:13.661Z,9.69
2023-02-19T01:30:54.868Z,9.62
2023-02-19T01:33:34.095Z,9.49
2023-02-19T01:36:21.517Z,9.47
2023-02-19T01:38:54.646Z,9.47
2023-02-19T01:41:38.997Z,9.44
2023-02-19T01:44:56.415Z,9.48
2023-02-19T01:47:48.278Z,9.45
2023-02-19T01:50:38.287Z,9.39
2023-02-19T01:53:27.782Z,9.35
2023-02-19T01:56:21.050Z,9.33
2023-02-19T01:59:09.865Z,9.33
2023-02-19T02:01:48.210Z,9.37
2023-02-19T02:04:34.407Z,9.40
2023-02-19T02:07:32.042Z,9.41
2023-02-19T02:10:31.348Z,9.50
2023-02-19T02:13:10.554Z,9.54
2023-02-19T02:16:01.407Z,9.54
2023-02-19T02:18:54.675Z,9.55
2023-02-19T02:22:21.639Z,9.67
2023-02-19T02:26:14.298Z,9.60
2023-02-19T02:29:37.360Z,9.49
2023-02-19T02:32:26.256Z,9.45
2023-02-19T02:35:23.578Z,9.50
2023-02-19T02:38:08.226Z,9.49
2023-02-19T02:40:53.487Z,9.48
2023-02-19T02:43:37.041Z,9.49
2023-02-19T02:46:37.882Z,9.50
2023-02-19T02:49:23.759Z,9.39
2023-02-19T02:52:25.262Z,9.33
2023-02-19T02:55:13.256Z,9.34
2023-02-19T02:57:53.612Z,9.38
2023-02-19T03:01:04.820Z,9.26
2023-02-19T03:03:51.081Z,9.27
2023-02-19T03:06:30.555Z,9.22
2023-02-19T03:09:37.353Z,9.22
2023-02-19T03:12:36.956Z,9.23
2023-02-19T03:15:31.532Z,9.30
2023-02-19T03:18:30.712Z,9.21
2023-02-19T03:21:17.381Z,9.28
2023-02-19T03:24:12.352Z,9.43
2023-02-19T03:26:57.059Z,9.33
2023-02-19T03:29:45.016Z,9.25
2023-02-19T03:32:29.061Z,9.29
2023-02-19T03:35:33.955Z,9.20
2023-02-19T03:38:39.578Z,9.30
2023-02-19T03:41:58.980Z,9.30
2023-02-19T03:45:23.123Z,9.20
2023-02-19T03:48:34.689Z,9.13
2023-02-19T03:51:58.934Z,9.19
2023-02-19T03:54:58.100Z,9.01
2023-02-19T03:58:14.175Z,8.90
2023-02-19T04:01:16.247Z,9.10
2023-02-19T04:03:57.466Z,9.04
2023-02-19T04:06:48.516Z,9.10
2023-02-19T04:09:33.457Z,9.06
2023-02-19T04:12:17.356Z,9.09
2023-02-19T04:15:24.794Z,9.04
2023-02-19T04:18:36.300Z,8.98
2023-02-19T04:21:19.013Z,8.82
2023-02-19T04:24:15.346Z,8.89
2023-02-19T04:26:57.221Z,8.93
2023-02-19T04:29:38.848Z,8.86
2023-02-19T04:32:31.243Z,8.72
2023-02-19T04:35:20.757Z,8.64
2023-02-19T04:38:13.978Z,8.53
2023-02-19T04:40:52.494Z,8.60
2023-02-19T04:43:42.917Z,8.52
2023-02-19T04:46:35.039Z,8.47
2023-02-19T04:49:19.280Z,8.32
2023-02-19T04:52:07.200Z,8.36
2023-02-19T04:55:04.147Z,8.38
2023-02-19T04:57:50.738Z,8.30
2023-02-19T05:00:37.080Z,8.34
2023-02-19T05:03:18.165Z,8.14
2023-02-19T05:06:09.238Z,8.11
2023-02-19T05:08:55.490Z,8.02
2023-02-19T05:11:41.761Z,8.06
2023-02-19T05:14:24.441Z,8.22
2023-02-19T05:17:08.078Z,8.10
2023-02-19T05:19:51.116Z,7.97
2023-02-19T05:22:38.375Z,8.21
2023-02-19T05:25:24.371Z,8.30
2023-02-19T05:28:28.708Z,8.33
2023-02-19T05:31:16.369Z,8.37
2023-02-19T05:34:08.893Z,8.38
2023-02-19T05:36:47.327Z,8.47
2023-02-19T05:39:27.521Z,8.46
2023-02-19T05:42:23.416Z,8.53
2023-02-19T05:45:15.060Z,8.60
2023-02-19T05:48:01.219Z,8.79
2023-02-19T05:50:51.789Z,8.84
2023-02-19T05:53:39.979Z,8.76
2023-02-19T05:56:35.352Z,8.87
2023-02-19T05:59:38.558Z,8.83
2023-02-19T06:02:28.700Z,8.93
2023-02-19T06:05:12.684Z,8.80
2023-02-19T06:07:50.943Z,8.85
2023-02-19T06:10:39.204Z,8.87
2023-02-19T06:13:38.682Z,8.72
2023-02-19T06:16:25.967Z,8.81
2023-02-19T06:19:13.840Z,8.83
2023-02-19T06:22:03.928Z,8.97
2023-02-19T06:24:51.266Z,9.05
2023-02-19T06:27:51.120Z,9.04
2023-02-19T06:30:35.320Z,9.11
2023-02-19T06:33:23.687Z,9.32
2023-02-19T06:36:04.538Z,9.36
2023-02-19T06:38:58.740Z,9.22
2023-02-19T06:41:39.736Z,9.29
2023-02-19T06:44:23.188Z,9.27
2023-02-19T06:47:13.417Z,9.42
2023-02-19T06:49:56.766Z,9.31
2023-02-19T06:52:53.974Z,9.41
2023-02-19T06:55:39.475Z,9.39
2023-02-19T06:58:23.184Z,9.35
2023-02-19T07:01:11.589Z,9.51
2023-02-19T07:03:53.337Z,9.59
2023-02-19T07:06:37.152Z,9.64
2023-02-19T07:09:24.137Z,9.60
2023-02-19T07:12:11.264Z,9.61
2023-02-19T07:14:48.598Z,9.74
2023-02-19T07:17:32.466Z,9.83
2023-02-19T07:20:19.233Z,9.94
2023-02-19T07:22:59.909Z,10.03
2023-02-19T07:25:50.261Z,10.06
2023-02-19T07:28:34.405Z,10.17
2023-02-19T07:31:14.261Z,10.20
2023-02-19T07:34:01.529Z,10.28
2023-02-19T07:36:43.230Z,10.26
2023-02-19T07:39:29.280Z,10.36
2023-02-19T07:42:15.314Z,10.47
2023-02-19T07:45:00.607Z,10.58
2023-02-19T07:47:48.322Z,10.66
2023-02-19T07:50:29.396Z,10.69
2023-02-19T07:53:15.744Z,10.83
2023-02-19T07:56:06.327Z,10.91
2023-02-19T07:58:47.370Z,10.91
2023-02-19T08:01:46.815Z,11.03
2023-02-19T08:04:30.675Z,11.05
2023-02-19T08:07:33.640Z,11.15
2023-02-19T08:10:28.139Z,11.20
2023-02-19T08:13:25.492Z,11.22
2023-02-19T08:16:42.875Z,11.18
2023-02-19T08:19:21.176Z,11.27
2023-02-19T08:22:03.008Z,11.19
2023-02-19T08:24:45.426Z,11.21
2023-02-19T08:27:35.310Z,11.02
2023-02-19T08:30:13.077Z,11.05
2023-02-19T08:33:02.277Z,11.00
2023-02-19T08:35:40.263Z,11.02
2023-02-19T08:38:26.950Z,10.84
2023-02-19T08:41:00.026Z,10.80
2023-02-19T08:43:44.282Z,10.81
2023-02-19T08:46:34.094Z,10.75
2023-02-19T08:49:10.178Z,10.75
2023-02-19T08:51:54.303Z,10.72
2023-02-19T08:54:41.544Z,10.76
2023-02-19T08:57:26.306Z,10.55
2023-02-19T09:00:13.232Z,10.59
2023-02-19T09:03:03.756Z,10.55
2023-02-19T09:05:47.240Z,10.47
2023-02-19T09:09:06.595Z,10.39
2023-02-19T09:11:54.256Z,10.40
2023-02-19T09:14:34.982Z,10.35
2023-02-19T09:17:19.071Z,10.24
2023-02-19T09:19:54.385Z,10.25
2023-02-19T09:22:45.018Z,10.07
2023-02-19T09:25:31.503Z,9.96
2023-02-19T09:28:23.217Z,9.79
2023-02-19T09:31:24.391Z,9.88
2023-02-19T09:34:02.315Z,9.96
2023-02-19T09:36:40.946Z,9.85
2023-02-19T09:39:33.308Z,9.86
2023-02-19T09:42:51.823Z,9.82
2023-02-19T09:45:38.632Z,9.95
2023-02-19T09:48:24.885Z,10.14
2023-02-19T09:51:06.582Z,10.26
2023-02-19T09:53:54.049Z,10.18
2023-02-19T09:56:40.041Z,10.41
2023-02-19T09:59:39.382Z,10.58
2023-02-19T10:02:31.252Z,10.82
2023-02-19T10:05:21.521Z,10.96
2023-02-19T10:07:59.323Z,11.07
2023-02-19T10:10:47.268Z,11.29
2023-02-19T10:14:01.767Z,11.39
2023-02-19T10:16:45.268Z,11.45
2023-02-19T10:19:25.926Z,11.35
2023-02-19T10:22:02.082Z,11.38
2023-02-19T10:24:45.910Z,11.43
2023-02-19T10:27:35.214Z,11.27
2023-02-19T10:30:23.729Z,11.08
2023-02-19T10:33:21.352Z,11.06
2023-02-19T10:36:31.300Z,11.19
2023-02-19T10:39:31.697Z,11.24
2023-02-19T10:42:26.451Z,11.57
2023-02-19T10:45:19.729Z,11.77
2023-02-19T10:48:08.130Z,11.63
2023-02-19T10:51:00.527Z,11.59
2023-02-19T10:54:04.331Z,11.70
2023-02-19T10:56:49.725Z,11.72
2023-02-19T10:59:34.773Z,12.00
2023-02-19T11:02:31.373Z,12.41
2023-02-19T11:05:23.428Z,12.66
2023-02-19T11:08:03.533Z,12.81
2023-02-19T11:10:56.316Z,12.92
2023-02-19T11:13:43.280Z,12.98
2023-02-19T11:16:22.726Z,13.01
2023-02-19T11:19:12.301Z,13.08
2023-02-19T11:21:59.591Z,13.18
2023-02-19T11:24:44.338Z,13.28
2023-02-19T11:27:32.273Z,13.35
2023-02-19T11:30:53.274Z,13.52
2023-02-19T11:33:37.131Z,13.51
2023-02-19T11:36:37.444Z,13.18
2023-02-19T11:39:18.682Z,13.00
2023-02-19T11:42:48.492Z,13.02
2023-02-19T11:46:05.570Z,13.12
2023-02-19T11:48:47.829Z,13.07
2023-02-19T11:51:41.646Z,12.98
2023-02-19T11:54:55.001Z,13.03
2023-02-19T11:57:50.404Z,13.12
2023-02-19T12:00:32.380Z,13.15
2023-02-19T12:03:43.571Z,13.09
2023-02-19T12:06:51.113Z,12.98
2023-02-19T12:09:45.175Z,12.98
2023-02-19T12:12:32.745Z,13.07
2023-02-19T12:15:41.201Z,13.15
2023-02-19T12:19:21.359Z,13.30
2023-02-19T12:22:13.998Z,13.35
2023-02-19T12:25:40.263Z,13.14
2023-02-19T12:28:28.482Z,12.85
2023-02-19T12:31:47.296Z,12.68
2023-02-19T12:34:49.260Z,12.77
2023-02-19T12:37:42.271Z,12.85
2023-02-19T12:41:04.009Z,12.86
2023-02-19T12:43:49.354Z,12.68
2023-02-19T12:46:47.079Z,12.30
2023-02-19T12:49:37.356Z,12.02
2023-02-19T12:52:26.650Z,11.83
2023-02-19T12:55:17.177Z,11.90
2023-02-19T12:57:58.387Z,11.74
2023-02-19T13:01:01.591Z,11.86
2023-02-19T13:04:08.641Z,11.92
2023-02-19T13:06:59.162Z,12.01
2023-02-19T13:09:50.163Z,12.00
2023-02-19T13:12:44.277Z,12.06
2023-02-19T13:15:41.350Z,12.15
2023-02-19T13:18:27.573Z,12.19
2023-02-19T13:21:13.379Z,12.20
2023-02-19T13:24:20.300Z,12.19
2023-02-19T13:27:48.439Z,12.15
2023-02-19T13:30:41.291Z,12.09
2023-02-19T13:33:39.410Z,12.11
2023-02-19T13:36:26.602Z,12.10
2023-02-19T13:39:12.735Z,12.14
2023-02-19T13:42:25.677Z,12.30
2023-02-19T13:45:14.031Z,12.44
2023-02-19T13:48:15.912Z,12.63
2023-02-19T13:51:47.891Z,12.56
2023-02-19T13:54:40.411Z,12.51
2023-02-19T13:57:32.258Z,12.35
2023-02-19T14:00:49.035Z,12.23
2023-02-19T14:04:26.895Z,12.02
2023-02-19T14:07:14.700Z,11.80
2023-02-19T14:10:01.946Z,11.57
2023-02-19T14:12:45.350Z,11.65
2023-02-19T14:15:44.688Z,11.67
2023-02-19T14:18:56.777Z,11.78
2023-02-19T14:21:46.650Z,11.82
2023-02-19T14:24:26.243Z,11.70
2023-02-19T14:27:12.853Z,11.69
2023-02-19T14:29:58.317Z,11.58
2023-02-19T14:32:43.389Z,11.58
2023-02-19T14:35:42.971Z,11.78
2023-02-19T14:38:33.743Z,11.79
2023-02-19T14:41:24.197Z,11.59
2023-02-19T14:44:04.147Z,11.51
2023-02-19T14:46:50.417Z,11.44
2023-02-19T14:49:44.627Z,11.29
2023-02-19T14:52:41.062Z,11.22
2023-02-19T14:55:31.216Z,11.17
2023-02-19T14:58:39.318Z,11.07
2023-02-19T15:01:35.463Z,10.94
2023-02-19T15:04:32.293Z,10.90
2023-02-19T15:07:19.611Z,10.92
2023-02-19T15:10:03.679Z,10.84
2023-02-19T15:12:59.192Z,10.75
2023-02-19T15:15:48.084Z,10.74
2023-02-19T15:18:52.208Z,10.75
2023-02-19T15:21:35.302Z,10.67
2023-02-19T15:24:14.998Z,10.64
2023-02-19T15:27:00.300Z,10.80
2023-02-19T15:29:57.333Z,10.92
2023-02-19T15:33:00.276Z,10.87
2023-02-19T15:35:46.297Z,10.56
2023-02-19T15:38:33.508Z,10.47
2023-02-19T15:41:30.254Z,10.38
2023-02-19T15:44:32.221Z,10.32
2023-02-19T15:47:29.773Z,10.32
2023-02-19T15:50:30.264Z,10.28
2023-02-19T15:53:31.793Z,10.17
2023-02-19T15:56:15.240Z,10.16
2023-02-19T15:59:18.389Z,10.13
2023-02-19T16:02:05.236Z,10.14
2023-02-19T16:04:58.014Z,10.14
2023-02-19T16:07:42.164Z,10.16
2023-02-19T16:10:41.127Z,10.09
2023-02-19T16:13:43.481Z,10.07
2023-02-19T16:16:43.716Z,10.09
2023-02-19T16:19:33.965Z,10.14
2023-02-19T16:22:25.931Z,10.01
2023-02-19T16:25:08.373Z,9.99
2023-02-19T16:27:48.067Z,9.94
2023-02-19T16:30:46.329Z,9.98
2023-02-19T16:33:48.746Z,9.96
2023-02-19T16:36:48.549Z,9.97
2023-02-19T16:39:25.559Z,9.90
2023-02-19T16:42:31.256Z,9.88
2023-02-19T16:45:18.091Z,9.94
2023-02-19T16:48:16.787Z,9.96
2023-02-19T16:50:53.936Z,9.85
2023-02-19T16:53:35.873Z,9.82
2023-02-19T16:56:24.179Z,9.82
2023-02-19T16:59:05.298Z,9.78
2023-02-19T17:01:52.033Z,9.71
2023-02-19T17:04:35.467Z,9.59
2023-02-19T17:07:19.065Z,9.52
2023-02-19T17:10:18.084Z,9.39
2023-02-19T17:13:21.065Z,9.38
2023-02-19T17:16:03.320Z,9.32
2023-02-19T17:18:46.961Z,9.33
2023-02-19T17:21:38.861Z,9.17
2023-02-19T17:24:24.603Z,9.17
2023-02-19T17:27:12.366Z,9.08
2023-02-19T17:29:53.937Z,9.13
2023-02-19T17:32:42.211Z,9.10
2023-02-19T17:35:19.792Z,9.07
2023-02-19T17:38:10.288Z,9.05
2023-02-19T17:44:30.275Z,9.08
2023-02-19T17:47:22.451Z,9.16
2023-02-19T17:50:09.515Z,9.20
2023-02-19T17:53:01.914Z,9.12
2023-02-19T17:55:47.416Z,9.06
2023-02-19T17:58:35.635Z,9.04
2023-02-19T18:01:13.993Z,9.07
2023-02-19T18:03:54.756Z,9.05
2023-02-19T18:06:35.095Z,9.00
2023-02-19T18:09:23.061Z,8.95
2023-02-19T18:12:07.482Z,8.97
2023-02-19T18:14:59.144Z,8.90
2023-02-19T18:17:42.724Z,8.70
2023-02-19T18:20:35.329Z,8.63
2023-02-19T18:23:22.131Z,8.59
2023-02-19T18:26:13.454Z,8.56
2023-02-19T18:29:01.808Z,8.45
2023-02-19T18:31:54.570Z,8.44
2023-02-19T18:35:02.067Z,8.29
2023-02-19T18:37:59.046Z,8.38
2023-02-19T18:40:52.458Z,8.29
2023-02-19T18:43:34.810Z,8.27
2023-02-19T18:46:24.650Z,8.25
2023-02-19T18:49:20.751Z,8.08
2023-02-19T18:52:04.429Z,8.07
2023-02-19T18:54:36.958Z,7.90
2023-02-19T18:57:15.447Z,7.97
2023-02-19T19:00:06.552Z,7.90
2023-02-19T19:02:51.113Z,7.87
2023-02-19T19:06:02.127Z,7.82
2023-02-19T19:08:42.765Z,7.71
2023-02-19T19:11:22.701Z,7.75
2023-02-19T19:14:04.958Z,7.70
2023-02-19T19:16:45.925Z,7.63
2023-02-19T19:19:30.285Z,7.61
2023-02-19T19:22:29.199Z,7.60
2023-02-19T19:25:09.958Z,7.63
2023-02-19T19:27:56.652Z,7.67
2023-02-19T19:30:45.655Z,7.73
2023-02-19T19:33:31.522Z,7.82
2023-02-19T19:36:23.344Z,7.80
2023-02-19T19:39:00.813Z,7.66
2023-02-19T19:41:41.376Z,7.80
2023-02-19T19:44:25.286Z,7.78
2023-02-19T19:47:01.364Z,7.75
2023-02-19T19:49:42.338Z,7.74
2023-02-19T19:52:27.209Z,7.71
2023-02-19T19:55:04.178Z,7.78
2023-02-19T19:57:46.184Z,7.82
2023-02-19T20:00:32.377Z,7.67
2023-02-19T20:03:27.346Z,7.74
2023-02-19T20:06:17.218Z,7.75
2023-02-19T20:09:04.280Z,7.74
2023-02-19T20:11:52.737Z,7.82
2023-02-19T20:14:41.597Z,7.78
2023-02-19T20:17:28.996Z,7.76
2023-02-19T20:20:13.641Z,7.59
2023-02-19T20:22:59.901Z,7.66
2023-02-19T20:25:37.816Z,7.56
2023-02-19T20:28:16.098Z,7.56
2023-02-19T20:31:13.983Z,7.51
2023-02-19T20:33:52.229Z,7.39
2023-02-19T20:36:33.078Z,7.25
2023-02-19T20:39:15.377Z,7.30
2023-02-19T20:41:59.222Z,7.35
2023-02-19T20:44:40.573Z,7.29
2023-02-19T20:47:31.529Z,7.28
2023-02-19T20:50:32.208Z,7.21
2023-02-19T20:53:18.137Z,7.16
2023-02-19T20:56:06.217Z,7.17
2023-02-19T20:58:52.730Z,7.05
2023-02-19T21:01:37.367Z,7.10
2023-02-19T21:04:22.040Z,7.01
2023-02-19T21:07:15.116Z,6.82
2023-02-19T21:09:57.347Z,6.76
2023-02-19T21:12:59.388Z,6.66
2023-02-19T21:15:45.123Z,6.71
2023-02-19T21:18:22.807Z,6.67
2023-02-19T21:21:03.613Z,6.59
2023-02-19T21:23:47.231Z,6.38
2023-02-19T21:26:32.346Z,6.23
2023-02-19T21:29:11.726Z,6.18
2023-02-19T21:31:58.157Z,6.20
2023-02-19T21:34:36.044Z,6.04
2023-02-19T21:37:17.344Z,5.87
2023-02-19T21:39:56.214Z,5.81
2023-02-19T21:42:37.965Z,5.72
2023-02-19T21:45:10.507Z,5.65
2023-02-19T21:48:02.201Z,5.52
2023-02-19T21:50:40.466Z,5.43
2023-02-19T21:53:27.204Z,5.34
2023-02-19T21:56:23.093Z,5.31
2023-02-19T21:58:57.954Z,5.21
2023-02-19T22:01:53.482Z,5.00
2023-02-19T22:04:35.040Z,4.90
2023-02-19T22:07:19.216Z,4.82
2023-02-19T22:10:08.637Z,4.74
2023-02-19T22:12:50.327Z,4.62
2023-02-19T22:15:33.896Z,4.53
2023-02-19T22:18:13.414Z,4.48
2023-02-19T22:21:03.621Z,4.49
2023-02-19T22:23:44.108Z,4.31
2023-02-19T22:26:45.909Z,4.17
2023-02-19T22:29:31.070Z,4.21
2023-02-19T22:32:14.250Z,4.13
2023-02-19T22:35:04.898Z,4.17
2023-02-19T22:38:01.635Z,4.16
2023-02-19T22:40:49.223Z,4.07
2023-02-19T22:43:33.092Z,3.98
2023-02-19T22:46:23.179Z,4.04
2023-02-19T22:49:07.414Z,3.83
2023-02-19T22:52:08.516Z,3.94
2023-02-19T22:54:37.409Z,3.82
2023-02-19T22:57:20.368Z,3.78
2023-02-19T23:00:23.788Z,3.95
2023-02-19T23:03:10.042Z,3.94
2023-02-19T23:06:05.169Z,4.02
2023-02-19T23:08:52.329Z,3.96
2023-02-19T23:11:43.623Z,4.00
2023-02-19T23:14:39.312Z,3.98
2023-02-19T23:17:23.333Z,3.89
2023-02-19T23:20:22.338Z,3.89
2023-02-19T23:23:11.575Z,3.95
2023-02-19T23:26:04.308Z,3.85
2023-02-19T23:28:42.125Z,3.88
2023-02-19T23:31:18.341Z,3.80
2023-02-19T23:33:56.992Z,3.71
2023-02-19T23:37:03.360Z,3.55
2023-02-19T23:39:44.403Z,3.70
2023-02-19T23:42:28.480Z,3.61
2023-02-19T23:45:22.002Z,3.54
2023-02-19T23:48:12.761Z,3.60
2023-02-19T23:50:53.458Z,3.48
2023-02-19T23:53:49.352Z,3.48
2023-02-19T23:56:29.380Z,3.35
2023-02-19T23:59:10.828Z,3.32
